KLEW/LEW METAR and TAF weather

Enter ICAO airport designator
Station Type Date Time Source
KLEW METAR 2021/07/30 21:56 UTC NOAA

KLEW 302156Z AUTO 31012G19KT 10SM FEW095 21/11 A2970 RMK AO2 SLPNO T02060111


Station Type Date Time Source
KLEW Decoded METAR 2021/07/30 21:56 UTC NOAA

Auburn-Lewiston, ME, United States (KLEW) 44-03N 070-17W
Jul 30, 2021 - 05:56 PM EDT / 2021.07.30 2156 UTC
Wind: from the NW (310 degrees) at 14 MPH (12 KT) gusting to 22 MPH (19 KT):0
Visibility: 10 mile(s):0
Sky conditions: mostly clear
Temperature: 69.1 F (20.6 C)
Dew Point: 52.0 F (11.1 C)
Relative Humidity: 54%
Pressure (altimeter): 29.7 in. Hg (1005 hPa)
ob: KLEW 302156Z AUTO 31012G19KT 10SM FEW095 21/11 A2970 RMK AO2 SLPNO T02060111
cycle: 22

Station Type Date Time Source
KLEW TAF UTC NOAA

Error!

Example: see airport list